sensor_id;sensor_type;location;lat;lon;timestamp;P1;durP1;ratioP1;P2;durP2;ratioP2
62929;SDS011;49036;42.782;23.108;2023-01-05T00:01:13;27.38;;;13.73;;
62929;SDS011;49036;42.782;23.108;2023-01-05T00:03:38;29.63;;;12.02;;
62929;SDS011;49036;42.782;23.108;2023-01-05T00:08:32;25.58;;;9.90;;
62929;SDS011;49036;42.782;23.108;2023-01-05T00:11:02;26.45;;;10.98;;
62929;SDS011;49036;42.782;23.108;2023-01-05T00:16:33;23.65;;;9.77;;
62929;SDS011;49036;42.782;23.108;2023-01-05T00:19:17;24.52;;;11.07;;
62929;SDS011;49036;42.782;23.108;2023-01-05T00:22:01;26.08;;;11.05;;
62929;SDS011;49036;42.782;23.108;2023-01-05T00:24:45;22.00;;;10.43;;
62929;SDS011;49036;42.782;23.108;2023-01-05T00:27:10;27.98;;;12.25;;
62929;SDS011;49036;42.782;23.108;2023-01-05T00:29:36;29.75;;;13.13;;
62929;SDS011;49036;42.782;23.108;2023-01-05T00:32:01;31.50;;;13.38;;
62929;SDS011;49036;42.782;23.108;2023-01-05T00:34:26;29.08;;;12.77;;
62929;SDS011;49036;42.782;23.108;2023-01-05T00:36:52;31.38;;;13.70;;
62929;SDS011;49036;42.782;23.108;2023-01-05T00:39:17;26.88;;;10.85;;
62929;SDS011;49036;42.782;23.108;2023-01-05T00:41:43;24.63;;;11.02;;
62929;SDS011;49036;42.782;23.108;2023-01-05T00:44:08;23.73;;;11.43;;
62929;SDS011;49036;42.782;23.108;2023-01-05T00:46:34;23.27;;;11.70;;
62929;SDS011;49036;42.782;23.108;2023-01-05T00:48:59;22.48;;;11.13;;
62929;SDS011;49036;42.782;23.108;2023-01-05T00:51:25;22.33;;;10.38;;
62929;SDS011;49036;42.782;23.108;2023-01-05T00:53:50;27.00;;;11.95;;
62929;SDS011;49036;42.782;23.108;2023-01-05T00:56:16;17.95;;;9.13;;
62929;SDS011;49036;42.782;23.108;2023-01-05T00:58:41;22.70;;;11.18;;
62929;SDS011;49036;42.782;23.108;2023-01-05T01:01:10;22.55;;;10.13;;
62929;SDS011;49036;42.782;23.108;2023-01-05T01:03:36;22.52;;;10.30;;
62929;SDS011;49036;42.782;23.108;2023-01-05T01:06:02;22.90;;;11.65;;
62929;SDS011;49036;42.782;23.108;2023-01-05T01:08:27;23.77;;;10.75;;
62929;SDS011;49036;42.782;23.108;2023-01-05T01:10:53;20.73;;;10.82;;
62929;SDS011;49036;42.782;23.108;2023-01-05T01:13:19;21.52;;;10.32;;
62929;SDS011;49036;42.782;23.108;2023-01-05T01:15:44;24.92;;;11.30;;
62929;SDS011;49036;42.782;23.108;2023-01-05T01:18:10;17.60;;;9.23;;
62929;SDS011;49036;42.782;23.108;2023-01-05T01:20:36;17.50;;;9.35;;
62929;SDS011;49036;42.782;23.108;2023-01-05T01:25:28;15.45;;;8.75;;
62929;SDS011;49036;42.782;23.108;2023-01-05T01:27:54;22.15;;;9.35;;
62929;SDS011;49036;42.782;23.108;2023-01-05T01:30:19;21.08;;;9.35;;
62929;SDS011;49036;42.782;23.108;2023-01-05T01:32:45;16.42;;;8.98;;
62929;SDS011;49036;42.782;23.108;2023-01-05T01:35:10;18.27;;;9.90;;
62929;SDS011;49036;42.782;23.108;2023-01-05T01:37:36;18.30;;;9.70;;
62929;SDS011;49036;42.782;23.108;2023-01-05T01:40:02;17.00;;;7.95;;
62929;SDS011;49036;42.782;23.108;2023-01-05T01:42:27;15.85;;;9.02;;
62929;SDS011;49036;42.782;23.108;2023-01-05T01:47:31;19.23;;;9.57;;
62929;SDS011;49036;42.782;23.108;2023-01-05T01:50:11;17.23;;;8.68;;
62929;SDS011;49036;42.782;23.108;2023-01-05T01:52:38;19.15;;;8.00;;
62929;SDS011;49036;42.782;23.108;2023-01-05T01:55:04;23.77;;;10.32;;
62929;SDS011;49036;42.782;23.108;2023-01-05T01:57:31;21.55;;;9.32;;
62929;SDS011;49036;42.782;23.108;2023-01-05T01:59:59;19.30;;;9.27;;
62929;SDS011;49036;42.782;23.108;2023-01-05T02:02:28;20.08;;;9.75;;
62929;SDS011;49036;42.782;23.108;2023-01-05T02:04:54;20.42;;;10.80;;
62929;SDS011;49036;42.782;23.108;2023-01-05T02:07:24;22.02;;;10.80;;
62929;SDS011;49036;42.782;23.108;2023-01-05T02:09:50;21.83;;;10.90;;
62929;SDS011;49036;42.782;23.108;2023-01-05T02:12:29;24.73;;;11.35;;
62929;SDS011;49036;42.782;23.108;2023-01-05T02:15:21;19.60;;;9.23;;
62929;SDS011;49036;42.782;23.108;2023-01-05T02:20:46;26.13;;;11.75;;
62929;SDS011;49036;42.782;23.108;2023-01-05T02:23:17;22.95;;;11.30;;
62929;SDS011;49036;42.782;23.108;2023-01-05T02:31:24;18.83;;;9.05;;
62929;SDS011;49036;42.782;23.108;2023-01-05T02:33:57;25.15;;;10.25;;
62929;SDS011;49036;42.782;23.108;2023-01-05T02:36:52;17.52;;;10.27;;
62929;SDS011;49036;42.782;23.108;2023-01-05T02:39:34;20.52;;;10.43;;
62929;SDS011;49036;42.782;23.108;2023-01-05T02:42:14;15.70;;;7.82;;
62929;SDS011;49036;42.782;23.108;2023-01-05T02:44:45;15.90;;;8.20;;
62929;SDS011;49036;42.782;23.108;2023-01-05T02:49:57;18.73;;;10.25;;
62929;SDS011;49036;42.782;23.108;2023-01-05T02:52:51;19.33;;;9.43;;
62929;SDS011;49036;42.782;23.108;2023-01-05T02:55:32;17.17;;;8.57;;
62929;SDS011;49036;42.782;23.108;2023-01-05T02:58:06;20.50;;;8.57;;
62929;SDS011;49036;42.782;23.108;2023-01-05T03:00:39;19.02;;;9.38;;
62929;SDS011;49036;42.782;23.108;2023-01-05T03:03:12;16.27;;;8.75;;
62929;SDS011;49036;42.782;23.108;2023-01-05T03:05:45;20.80;;;9.88;;
62929;SDS011;49036;42.782;23.108;2023-01-05T03:08:33;23.90;;;10.00;;
62929;SDS011;49036;42.782;23.108;2023-01-05T03:11:07;20.70;;;9.82;;
62929;SDS011;49036;42.782;23.108;2023-01-05T03:13:58;20.42;;;10.43;;
62929;SDS011;49036;42.782;23.108;2023-01-05T03:18:55;22.40;;;10.13;;
62929;SDS011;49036;42.782;23.108;2023-01-05T03:24:24;20.45;;;10.38;;
62929;SDS011;49036;42.782;23.108;2023-01-05T03:27:08;20.15;;;9.05;;
62929;SDS011;49036;42.782;23.108;2023-01-05T03:29:53;20.25;;;10.20;;
62929;SDS011;49036;42.782;23.108;2023-01-05T03:32:43;23.30;;;11.38;;
62929;SDS011;49036;42.782;23.108;2023-01-05T03:35:33;23.55;;;9.98;;
62929;SDS011;49036;42.782;23.108;2023-01-05T03:40:57;26.40;;;10.27;;
62929;SDS011;49036;42.782;23.108;2023-01-05T03:43:26;22.13;;;10.77;;
62929;SDS011;49036;42.782;23.108;2023-01-05T03:45:52;23.63;;;10.35;;
62929;SDS011;49036;42.782;23.108;2023-01-05T03:48:21;20.05;;;10.25;;
62929;SDS011;49036;42.782;23.108;2023-01-05T03:50:49;20.05;;;10.55;;
62929;SDS011;49036;42.782;23.108;2023-01-05T03:53:15;16.63;;;8.98;;
62929;SDS011;49036;42.782;23.108;2023-01-05T03:55:41;16.10;;;8.68;;
62929;SDS011;49036;42.782;23.108;2023-01-05T03:58:06;24.83;;;10.98;;
62929;SDS011;49036;42.782;23.108;2023-01-05T04:00:32;23.13;;;11.25;;
62929;SDS011;49036;42.782;23.108;2023-01-05T04:02:58;24.23;;;12.18;;
62929;SDS011;49036;42.782;23.108;2023-01-05T04:05:23;30.17;;;12.48;;
62929;SDS011;49036;42.782;23.108;2023-01-05T04:07:49;20.58;;;9.93;;
62929;SDS011;49036;42.782;23.108;2023-01-05T04:10:15;24.75;;;11.10;;
62929;SDS011;49036;42.782;23.108;2023-01-05T04:12:40;23.08;;;10.35;;
62929;SDS011;49036;42.782;23.108;2023-01-05T04:15:06;16.52;;;9.20;;
62929;SDS011;49036;42.782;23.108;2023-01-05T04:17:32;23.60;;;11.02;;
62929;SDS011;49036;42.782;23.108;2023-01-05T04:19:57;28.02;;;12.70;;
62929;SDS011;49036;42.782;23.108;2023-01-05T04:22:23;26.02;;;12.05;;
62929;SDS011;49036;42.782;23.108;2023-01-05T04:24:48;23.55;;;11.02;;
62929;SDS011;49036;42.782;23.108;2023-01-05T04:27:14;24.38;;;12.18;;
62929;SDS011;49036;42.782;23.108;2023-01-05T04:29:39;24.35;;;11.93;;
62929;SDS011;49036;42.782;23.108;2023-01-05T04:32:05;21.65;;;10.75;;
62929;SDS011;49036;42.782;23.108;2023-01-05T04:34:30;22.10;;;11.93;;
62929;SDS011;49036;42.782;23.108;2023-01-05T04:36:56;21.85;;;10.05;;
62929;SDS011;49036;42.782;23.108;2023-01-05T04:39:21;21.45;;;10.40;;
62929;SDS011;49036;42.782;23.108;2023-01-05T04:41:47;19.77;;;9.52;;
62929;SDS011;49036;42.782;23.108;2023-01-05T04:44:13;17.23;;;9.52;;
62929;SDS011;49036;42.782;23.108;2023-01-05T04:46:39;22.42;;;10.75;;
62929;SDS011;49036;42.782;23.108;2023-01-05T04:49:04;22.05;;;9.77;;
62929;SDS011;49036;42.782;23.108;2023-01-05T04:51:30;21.85;;;9.95;;
62929;SDS011;49036;42.782;23.108;2023-01-05T04:53:55;17.58;;;8.95;;
62929;SDS011;49036;42.782;23.108;2023-01-05T04:56:21;20.40;;;9.65;;
62929;SDS011;49036;42.782;23.108;2023-01-05T04:58:47;23.25;;;10.13;;
62929;SDS011;49036;42.782;23.108;2023-01-05T05:01:12;22.05;;;10.00;;
62929;SDS011;49036;42.782;23.108;2023-01-05T05:03:38;21.15;;;10.35;;
62929;SDS011;49036;42.782;23.108;2023-01-05T05:06:04;19.67;;;10.85;;
62929;SDS011;49036;42.782;23.108;2023-01-05T05:08:29;18.02;;;9.55;;
62929;SDS011;49036;42.782;23.108;2023-01-05T05:10:55;19.88;;;9.80;;
62929;SDS011;49036;42.782;23.108;2023-01-05T05:13:20;22.38;;;8.55;;
62929;SDS011;49036;42.782;23.108;2023-01-05T05:15:45;24.35;;;10.20;;
62929;SDS011;49036;42.782;23.108;2023-01-05T05:18:11;20.52;;;8.90;;
62929;SDS011;49036;42.782;23.108;2023-01-05T05:20:37;18.33;;;9.27;;
62929;SDS011;49036;42.782;23.108;2023-01-05T05:23:05;18.52;;;8.80;;
62929;SDS011;49036;42.782;23.108;2023-01-05T05:25:31;20.50;;;10.15;;
62929;SDS011;49036;42.782;23.108;2023-01-05T05:27:56;25.05;;;11.02;;
62929;SDS011;49036;42.782;23.108;2023-01-05T05:30:22;22.23;;;10.88;;
62929;SDS011;49036;42.782;23.108;2023-01-05T05:32:47;24.33;;;11.05;;
62929;SDS011;49036;42.782;23.108;2023-01-05T05:35:12;21.27;;;10.15;;
62929;SDS011;49036;42.782;23.108;2023-01-05T05:37:38;21.60;;;10.88;;
62929;SDS011;49036;42.782;23.108;2023-01-05T05:40:04;35.95;;;15.00;;
62929;SDS011;49036;42.782;23.108;2023-01-05T05:42:30;52.45;;;23.02;;
62929;SDS011;49036;42.782;23.108;2023-01-05T05:44:55;38.38;;;15.82;;
62929;SDS011;49036;42.782;23.108;2023-01-05T05:47:21;22.40;;;11.25;;
62929;SDS011;49036;42.782;23.108;2023-01-05T05:49:46;37.17;;;16.30;;
62929;SDS011;49036;42.782;23.108;2023-01-05T05:52:11;26.30;;;12.00;;
62929;SDS011;49036;42.782;23.108;2023-01-05T05:54:37;28.73;;;12.05;;
62929;SDS011;49036;42.782;23.108;2023-01-05T05:57:02;27.42;;;12.15;;
62929;SDS011;49036;42.782;23.108;2023-01-05T05:59:28;27.15;;;13.00;;
62929;SDS011;49036;42.782;23.108;2023-01-05T06:01:53;29.83;;;11.90;;
62929;SDS011;49036;42.782;23.108;2023-01-05T06:04:19;29.73;;;12.48;;
62929;SDS011;49036;42.782;23.108;2023-01-05T06:06:44;39.40;;;16.00;;
62929;SDS011;49036;42.782;23.108;2023-01-05T06:09:10;34.30;;;15.50;;
62929;SDS011;49036;42.782;23.108;2023-01-05T06:11:35;31.00;;;14.90;;
62929;SDS011;49036;42.782;23.108;2023-01-05T06:14:01;31.85;;;15.60;;
62929;SDS011;49036;42.782;23.108;2023-01-05T06:16:27;40.33;;;17.00;;
62929;SDS011;49036;42.782;23.108;2023-01-05T06:18:53;32.83;;;14.80;;
62929;SDS011;49036;42.782;23.108;2023-01-05T06:21:18;31.00;;;14.02;;
62929;SDS011;49036;42.782;23.108;2023-01-05T06:23:46;33.85;;;14.45;;
62929;SDS011;49036;42.782;23.108;2023-01-05T06:26:11;46.60;;;19.42;;
62929;SDS011;49036;42.782;23.108;2023-01-05T06:28:37;60.03;;;27.35;;
62929;SDS011;49036;42.782;23.108;2023-01-05T06:31:02;63.00;;;27.60;;
62929;SDS011;49036;42.782;23.108;2023-01-05T06:33:28;27.80;;;13.23;;
62929;SDS011;49036;42.782;23.108;2023-01-05T06:35:54;28.50;;;12.93;;
62929;SDS011;49036;42.782;23.108;2023-01-05T06:38:19;26.40;;;11.40;;
62929;SDS011;49036;42.782;23.108;2023-01-05T06:40:45;24.77;;;11.88;;
62929;SDS011;49036;42.782;23.108;2023-01-05T06:45:37;27.55;;;11.60;;
62929;SDS011;49036;42.782;23.108;2023-01-05T06:48:02;22.67;;;11.75;;
62929;SDS011;49036;42.782;23.108;2023-01-05T06:50:28;24.52;;;11.98;;
62929;SDS011;49036;42.782;23.108;2023-01-05T06:52:56;22.77;;;9.82;;
62929;SDS011;49036;42.782;23.108;2023-01-05T06:55:21;24.95;;;11.20;;
62929;SDS011;49036;42.782;23.108;2023-01-05T06:57:47;23.77;;;9.43;;
62929;SDS011;49036;42.782;23.108;2023-01-05T07:00:13;22.60;;;10.50;;
62929;SDS011;49036;42.782;23.108;2023-01-05T07:02:39;16.77;;;8.82;;
62929;SDS011;49036;42.782;23.108;2023-01-05T07:05:04;23.95;;;10.38;;
62929;SDS011;49036;42.782;23.108;2023-01-05T07:07:30;18.75;;;9.43;;
62929;SDS011;49036;42.782;23.108;2023-01-05T07:09:56;20.48;;;9.63;;
62929;SDS011;49036;42.782;23.108;2023-01-05T07:12:21;16.13;;;9.00;;
62929;SDS011;49036;42.782;23.108;2023-01-05T07:14:47;15.93;;;8.80;;
62929;SDS011;49036;42.782;23.108;2023-01-05T07:17:12;25.42;;;10.00;;
62929;SDS011;49036;42.782;23.108;2023-01-05T07:19:38;23.08;;;10.20;;
62929;SDS011;49036;42.782;23.108;2023-01-05T07:22:04;18.40;;;8.45;;
62929;SDS011;49036;42.782;23.108;2023-01-05T07:24:29;21.90;;;9.02;;
62929;SDS011;49036;42.782;23.108;2023-01-05T07:26:55;20.58;;;10.05;;
62929;SDS011;49036;42.782;23.108;2023-01-05T07:29:22;21.23;;;10.15;;
62929;SDS011;49036;42.782;23.108;2023-01-05T07:31:48;26.58;;;8.95;;
62929;SDS011;49036;42.782;23.108;2023-01-05T07:34:16;17.60;;;9.30;;
62929;SDS011;49036;42.782;23.108;2023-01-05T07:36:43;46.25;;;16.17;;
62929;SDS011;49036;42.782;23.108;2023-01-05T07:39:09;22.52;;;10.15;;
62929;SDS011;49036;42.782;23.108;2023-01-05T07:41:34;19.60;;;11.73;;
62929;SDS011;49036;42.782;23.108;2023-01-05T07:44:00;15.30;;;8.95;;
62929;SDS011;49036;42.782;23.108;2023-01-05T07:46:25;27.80;;;10.85;;
62929;SDS011;49036;42.782;23.108;2023-01-05T07:48:51;23.83;;;13.00;;
62929;SDS011;49036;42.782;23.108;2023-01-05T07:51:16;17.55;;;9.85;;
62929;SDS011;49036;42.782;23.108;2023-01-05T07:53:43;14.52;;;8.35;;
62929;SDS011;49036;42.782;23.108;2023-01-05T07:56:09;23.75;;;12.23;;
62929;SDS011;49036;42.782;23.108;2023-01-05T07:58:36;16.30;;;8.38;;
62929;SDS011;49036;42.782;23.108;2023-01-05T08:01:06;18.25;;;9.88;;
62929;SDS011;49036;42.782;23.108;2023-01-05T08:03:34;12.82;;;7.25;;
62929;SDS011;49036;42.782;23.108;2023-01-05T08:06:03;16.35;;;8.90;;
62929;SDS011;49036;42.782;23.108;2023-01-05T08:08:30;16.05;;;8.48;;
62929;SDS011;49036;42.782;23.108;2023-01-05T08:10:56;15.27;;;8.05;;
62929;SDS011;49036;42.782;23.108;2023-01-05T08:13:21;14.90;;;7.82;;
62929;SDS011;49036;42.782;23.108;2023-01-05T08:16:05;17.17;;;8.75;;
62929;SDS011;49036;42.782;23.108;2023-01-05T08:18:31;14.95;;;8.93;;
62929;SDS011;49036;42.782;23.108;2023-01-05T08:20:58;15.63;;;7.15;;
62929;SDS011;49036;42.782;23.108;2023-01-05T08:23:28;18.65;;;7.80;;
62929;SDS011;49036;42.782;23.108;2023-01-05T08:25:55;15.27;;;7.32;;
62929;SDS011;49036;42.782;23.108;2023-01-05T08:28:21;12.32;;;7.07;;
62929;SDS011;49036;42.782;23.108;2023-01-05T08:30:47;12.35;;;7.32;;
62929;SDS011;49036;42.782;23.108;2023-01-05T08:33:13;14.10;;;8.02;;
62929;SDS011;49036;42.782;23.108;2023-01-05T08:35:42;15.15;;;8.05;;
62929;SDS011;49036;42.782;23.108;2023-01-05T08:38:09;15.65;;;7.28;;
62929;SDS011;49036;42.782;23.108;2023-01-05T08:40:37;12.93;;;6.47;;
62929;SDS011;49036;42.782;23.108;2023-01-05T08:43:03;12.32;;;6.88;;
62929;SDS011;49036;42.782;23.108;2023-01-05T08:45:29;10.88;;;6.53;;
62929;SDS011;49036;42.782;23.108;2023-01-05T08:47:56;9.50;;;6.15;;
62929;SDS011;49036;42.782;23.108;2023-01-05T08:50:21;13.68;;;6.35;;
62929;SDS011;49036;42.782;23.108;2023-01-05T08:52:47;10.80;;;7.20;;
62929;SDS011;49036;42.782;23.108;2023-01-05T08:55:12;14.57;;;6.97;;
62929;SDS011;49036;42.782;23.108;2023-01-05T08:57:38;10.50;;;6.07;;
62929;SDS011;49036;42.782;23.108;2023-01-05T09:00:03;10.43;;;6.40;;
62929;SDS011;49036;42.782;23.108;2023-01-05T09:02:30;16.30;;;7.13;;
62929;SDS011;49036;42.782;23.108;2023-01-05T09:04:55;12.65;;;6.45;;
62929;SDS011;49036;42.782;23.108;2023-01-05T09:07:21;12.20;;;6.22;;
62929;SDS011;49036;42.782;23.108;2023-01-05T09:09:46;11.70;;;6.70;;
62929;SDS011;49036;42.782;23.108;2023-01-05T09:12:16;13.57;;;5.97;;
62929;SDS011;49036;42.782;23.108;2023-01-05T09:14:41;11.68;;;6.68;;
62929;SDS011;49036;42.782;23.108;2023-01-05T09:17:07;56.15;;;15.50;;
62929;SDS011;49036;42.782;23.108;2023-01-05T09:19:32;19.10;;;7.88;;
62929;SDS011;49036;42.782;23.108;2023-01-05T09:22:01;29.52;;;9.40;;
62929;SDS011;49036;42.782;23.108;2023-01-05T09:24:26;18.60;;;8.93;;
62929;SDS011;49036;42.782;23.108;2023-01-05T09:26:52;56.47;;;9.75;;
62929;SDS011;49036;42.782;23.108;2023-01-05T09:29:18;13.13;;;6.93;;
62929;SDS011;49036;42.782;23.108;2023-01-05T09:31:44;16.17;;;6.93;;
62929;SDS011;49036;42.782;23.108;2023-01-05T09:34:09;20.63;;;7.43;;
62929;SDS011;49036;42.782;23.108;2023-01-05T09:36:35;13.43;;;6.55;;
62929;SDS011;49036;42.782;23.108;2023-01-05T09:39:02;10.68;;;6.32;;
62929;SDS011;49036;42.782;23.108;2023-01-05T09:41:37;12.20;;;6.70;;
62929;SDS011;49036;42.782;23.108;2023-01-05T09:46:45;10.07;;;6.38;;
62929;SDS011;49036;42.782;23.108;2023-01-05T09:49:14;12.82;;;6.50;;
62929;SDS011;49036;42.782;23.108;2023-01-05T09:51:41;16.67;;;5.65;;
62929;SDS011;49036;42.782;23.108;2023-01-05T09:54:10;15.18;;;7.65;;
62929;SDS011;49036;42.782;23.108;2023-01-05T09:56:41;12.15;;;7.18;;
62929;SDS011;49036;42.782;23.108;2023-01-05T10:01:54;9.43;;;6.13;;
62929;SDS011;49036;42.782;23.108;2023-01-05T10:04:23;24.30;;;7.38;;
62929;SDS011;49036;42.782;23.108;2023-01-05T10:06:52;12.57;;;6.57;;
62929;SDS011;49036;42.782;23.108;2023-01-05T10:09:21;12.63;;;6.35;;
62929;SDS011;49036;42.782;23.108;2023-01-05T10:11:58;12.10;;;7.38;;
62929;SDS011;49036;42.782;23.108;2023-01-05T10:14:51;12.85;;;6.05;;
62929;SDS011;49036;42.782;23.108;2023-01-05T10:17:23;40.90;;;8.57;;
62929;SDS011;49036;42.782;23.108;2023-01-05T10:19:50;14.02;;;7.10;;
62929;SDS011;49036;42.782;23.108;2023-01-05T10:30:56;11.30;;;6.50;;
62929;SDS011;49036;42.782;23.108;2023-01-05T10:33:30;31.67;;;8.23;;
62929;SDS011;49036;42.782;23.108;2023-01-05T13:20:45;7.75;;;4.20;;
62929;SDS011;49036;42.782;23.108;2023-01-05T13:22:48;8.32;;;3.67;;
62929;SDS011;49036;42.782;23.108;2023-01-05T13:25:18;7.38;;;4.60;;
62929;SDS011;49036;42.782;23.108;2023-01-05T13:27:47;8.85;;;4.15;;
62929;SDS011;49036;42.782;23.108;2023-01-05T13:32:59;9.13;;;4.50;;
62929;SDS011;49036;42.782;23.108;2023-01-05T13:35:36;7.50;;;4.20;;
62929;SDS011;49036;42.782;23.108;2023-01-05T13:41:27;7.22;;;3.72;;
62929;SDS011;49036;42.782;23.108;2023-01-05T13:51:49;9.02;;;5.70;;
62929;SDS011;49036;42.782;23.108;2023-01-05T13:54:25;7.93;;;4.25;;
62929;SDS011;49036;42.782;23.108;2023-01-05T13:56:52;7.20;;;4.53;;
62929;SDS011;49036;42.782;23.108;2023-01-05T14:02:02;5.82;;;3.33;;
62929;SDS011;49036;42.782;23.108;2023-01-05T14:04:30;5.88;;;4.15;;
62929;SDS011;49036;42.782;23.108;2023-01-05T14:06:59;7.28;;;4.90;;
62929;SDS011;49036;42.782;23.108;2023-01-05T14:09:33;8.35;;;4.20;;
62929;SDS011;49036;42.782;23.108;2023-01-05T14:14:31;7.90;;;4.68;;
62929;SDS011;49036;42.782;23.108;2023-01-05T14:33:32;6.38;;;4.13;;
62929;SDS011;49036;42.782;23.108;2023-01-05T14:36:01;8.23;;;4.10;;
62929;SDS011;49036;42.782;23.108;2023-01-05T14:38:28;7.97;;;4.53;;
62929;SDS011;49036;42.782;23.108;2023-01-05T14:40:54;6.97;;;4.32;;
62929;SDS011;49036;42.782;23.108;2023-01-05T14:46:17;7.93;;;4.50;;
62929;SDS011;49036;42.782;23.108;2023-01-05T14:51:31;7.72;;;4.32;;
62929;SDS011;49036;42.782;23.108;2023-01-05T14:53:59;6.88;;;4.38;;
62929;SDS011;49036;42.782;23.108;2023-01-05T14:56:30;8.90;;;4.90;;
62929;SDS011;49036;42.782;23.108;2023-01-05T15:04:26;8.98;;;5.40;;
62929;SDS011;49036;42.782;23.108;2023-01-05T15:07:13;9.52;;;5.38;;
62929;SDS011;49036;42.782;23.108;2023-01-05T15:10:44;9.68;;;5.10;;
62929;SDS011;49036;42.782;23.108;2023-01-05T15:26:39;10.20;;;6.00;;
62929;SDS011;49036;42.782;23.108;2023-01-05T15:29:21;9.27;;;5.13;;
62929;SDS011;49036;42.782;23.108;2023-01-05T15:34:42;7.80;;;4.13;;
62929;SDS011;49036;42.782;23.108;2023-01-05T15:37:30;9.13;;;4.85;;
62929;SDS011;49036;42.782;23.108;2023-01-05T15:39:59;13.05;;;5.95;;
62929;SDS011;49036;42.782;23.108;2023-01-05T15:42:38;7.95;;;4.55;;
62929;SDS011;49036;42.782;23.108;2023-01-05T15:45:08;8.20;;;4.70;;
62929;SDS011;49036;42.782;23.108;2023-01-05T15:47:41;11.60;;;6.43;;
62929;SDS011;49036;42.782;23.108;2023-01-05T15:50:15;10.57;;;4.63;;
62929;SDS011;49036;42.782;23.108;2023-01-05T15:52:50;10.85;;;5.38;;
62929;SDS011;49036;42.782;23.108;2023-01-05T15:55:18;9.60;;;5.30;;
62929;SDS011;49036;42.782;23.108;2023-01-05T16:00:39;10.18;;;5.00;;
62929;SDS011;49036;42.782;23.108;2023-01-05T16:06:02;12.45;;;6.07;;
62929;SDS011;49036;42.782;23.108;2023-01-05T16:08:35;11.40;;;5.93;;
62929;SDS011;49036;42.782;23.108;2023-01-05T16:11:09;11.85;;;5.78;;
62929;SDS011;49036;42.782;23.108;2023-01-05T16:16:03;10.95;;;5.45;;
62929;SDS011;49036;42.782;23.108;2023-01-05T16:18:35;10.60;;;4.95;;
62929;SDS011;49036;42.782;23.108;2023-01-05T16:21:10;9.20;;;4.95;;
62929;SDS011;49036;42.782;23.108;2023-01-05T16:23:49;9.88;;;5.88;;
62929;SDS011;49036;42.782;23.108;2023-01-05T16:26:19;10.13;;;4.93;;
62929;SDS011;49036;42.782;23.108;2023-01-05T16:28:45;9.32;;;5.15;;
62929;SDS011;49036;42.782;23.108;2023-01-05T16:31:14;9.30;;;4.63;;
62929;SDS011;49036;42.782;23.108;2023-01-05T16:37:00;11.00;;;5.18;;
62929;SDS011;49036;42.782;23.108;2023-01-05T16:39:41;9.45;;;4.80;;
62929;SDS011;49036;42.782;23.108;2023-01-05T16:42:20;9.65;;;4.90;;
62929;SDS011;49036;42.782;23.108;2023-01-05T16:45:22;8.43;;;4.47;;
62929;SDS011;49036;42.782;23.108;2023-01-05T16:47:49;7.93;;;4.18;;
62929;SDS011;49036;42.782;23.108;2023-01-05T16:52:53;10.07;;;4.90;;
62929;SDS011;49036;42.782;23.108;2023-01-05T16:55:30;7.82;;;4.30;;
62929;SDS011;49036;42.782;23.108;2023-01-05T16:57:59;8.20;;;4.28;;
62929;SDS011;49036;42.782;23.108;2023-01-05T17:02:55;9.80;;;4.53;;
62929;SDS011;49036;42.782;23.108;2023-01-05T17:05:31;9.70;;;4.93;;
62929;SDS011;49036;42.782;23.108;2023-01-05T17:08:05;6.55;;;3.60;;
62929;SDS011;49036;42.782;23.108;2023-01-05T17:10:48;11.80;;;6.03;;
62929;SDS011;49036;42.782;23.108;2023-01-05T17:13:16;9.43;;;5.13;;
62929;SDS011;49036;42.782;23.108;2023-01-05T17:15:44;15.07;;;5.55;;
62929;SDS011;49036;42.782;23.108;2023-01-05T17:20:42;10.35;;;4.95;;
62929;SDS011;49036;42.782;23.108;2023-01-05T17:25:48;11.05;;;5.40;;
62929;SDS011;49036;42.782;23.108;2023-01-05T17:28:14;12.93;;;5.72;;
62929;SDS011;49036;42.782;23.108;2023-01-05T17:30:40;8.98;;;4.45;;
62929;SDS011;49036;42.782;23.108;2023-01-05T17:33:05;9.27;;;5.15;;
62929;SDS011;49036;42.782;23.108;2023-01-05T17:35:31;8.40;;;4.68;;
62929;SDS011;49036;42.782;23.108;2023-01-05T17:37:57;12.45;;;4.20;;
62929;SDS011;49036;42.782;23.108;2023-01-05T17:40:22;9.68;;;4.75;;
62929;SDS011;49036;42.782;23.108;2023-01-05T17:42:48;12.57;;;5.93;;
62929;SDS011;49036;42.782;23.108;2023-01-05T17:45:18;13.02;;;5.57;;
62929;SDS011;49036;42.782;23.108;2023-01-05T17:47:45;12.52;;;5.32;;
62929;SDS011;49036;42.782;23.108;2023-01-05T17:50:18;11.23;;;5.70;;
62929;SDS011;49036;42.782;23.108;2023-01-05T17:52:45;11.15;;;5.82;;
62929;SDS011;49036;42.782;23.108;2023-01-05T17:55:11;11.07;;;6.22;;
62929;SDS011;49036;42.782;23.108;2023-01-05T17:57:37;13.82;;;5.03;;
62929;SDS011;49036;42.782;23.108;2023-01-05T18:00:04;8.32;;;5.38;;
62929;SDS011;49036;42.782;23.108;2023-01-05T18:02:31;9.60;;;5.65;;
62929;SDS011;49036;42.782;23.108;2023-01-05T18:07:23;6.22;;;4.57;;
62929;SDS011;49036;42.782;23.108;2023-01-05T18:09:48;8.65;;;5.13;;
62929;SDS011;49036;42.782;23.108;2023-01-05T18:12:14;12.20;;;5.22;;
62929;SDS011;49036;42.782;23.108;2023-01-05T18:14:40;9.73;;;4.72;;
62929;SDS011;49036;42.782;23.108;2023-01-05T18:17:07;9.00;;;5.05;;
62929;SDS011;49036;42.782;23.108;2023-01-05T18:19:33;11.18;;;6.18;;
62929;SDS011;49036;42.782;23.108;2023-01-05T18:21:58;11.77;;;6.05;;
62929;SDS011;49036;42.782;23.108;2023-01-05T18:24:24;14.40;;;7.18;;
62929;SDS011;49036;42.782;23.108;2023-01-05T18:26:50;13.00;;;5.90;;
62929;SDS011;49036;42.782;23.108;2023-01-05T18:29:15;8.95;;;5.10;;
62929;SDS011;49036;42.782;23.108;2023-01-05T18:31:41;14.38;;;6.22;;
62929;SDS011;49036;42.782;23.108;2023-01-05T18:34:06;13.35;;;6.97;;
62929;SDS011;49036;42.782;23.108;2023-01-05T18:36:32;13.93;;;6.80;;
62929;SDS011;49036;42.782;23.108;2023-01-05T18:38:57;15.38;;;5.93;;
62929;SDS011;49036;42.782;23.108;2023-01-05T18:41:23;8.90;;;4.50;;
62929;SDS011;49036;42.782;23.108;2023-01-05T18:43:49;9.55;;;5.07;;
62929;SDS011;49036;42.782;23.108;2023-01-05T18:46:14;9.95;;;5.20;;
62929;SDS011;49036;42.782;23.108;2023-01-05T18:48:40;11.75;;;5.43;;
62929;SDS011;49036;42.782;23.108;2023-01-05T18:51:06;12.85;;;5.65;;
62929;SDS011;49036;42.782;23.108;2023-01-05T18:53:34;13.48;;;5.85;;
62929;SDS011;49036;42.782;23.108;2023-01-05T18:56:07;12.57;;;5.65;;
62929;SDS011;49036;42.782;23.108;2023-01-05T18:58:34;13.60;;;6.40;;
62929;SDS011;49036;42.782;23.108;2023-01-05T19:01:05;12.82;;;5.75;;
62929;SDS011;49036;42.782;23.108;2023-01-05T19:03:32;13.75;;;5.80;;
62929;SDS011;49036;42.782;23.108;2023-01-05T19:05:58;12.05;;;6.47;;
62929;SDS011;49036;42.782;23.108;2023-01-05T19:08:29;15.10;;;6.63;;
62929;SDS011;49036;42.782;23.108;2023-01-05T19:10:54;18.13;;;6.93;;
62929;SDS011;49036;42.782;23.108;2023-01-05T19:13:20;10.55;;;5.78;;
62929;SDS011;49036;42.782;23.108;2023-01-05T19:15:45;10.77;;;5.90;;
62929;SDS011;49036;42.782;23.108;2023-01-05T19:18:11;9.02;;;4.75;;
62929;SDS011;49036;42.782;23.108;2023-01-05T19:20:36;10.10;;;4.88;;
62929;SDS011;49036;42.782;23.108;2023-01-05T19:23:02;10.50;;;5.95;;
62929;SDS011;49036;42.782;23.108;2023-01-05T19:25:28;13.02;;;6.78;;